createdAt,value
2019-03-11T00:00:54.746Z,74.97
2019-03-11T00:05:56.433Z,75.52
2019-03-11T00:10:58.102Z,75.84
2019-03-11T00:15:59.769Z,76.92
2019-03-11T00:21:01.499Z,77.86
2019-03-11T00:26:03.172Z,77.52
2019-03-11T00:31:04.840Z,78.27
2019-03-11T00:36:06.548Z,78.79
2019-03-11T00:41:08.233Z,79.08
2019-03-11T00:46:09.948Z,79.03
2019-03-11T00:51:11.558Z,78.84
2019-03-11T00:56:13.156Z,78.86
2019-03-11T01:01:14.771Z,78.96
2019-03-11T01:06:16.442Z,76.71
2019-03-11T01:11:18.150Z,76.74
2019-03-11T01:16:19.793Z,74.76
2019-03-11T01:21:21.584Z,74.14
2019-03-11T01:26:23.197Z,75.23
2019-03-11T01:31:24.779Z,71.68
2019-03-11T01:36:26.404Z,74.14
2019-03-11T01:41:28.151Z,72.46
2019-03-11T01:46:29.767Z,71.10
2019-03-11T01:51:31.424Z,69.33
2019-03-11T01:56:33.096Z,71.67
2019-03-11T02:01:34.730Z,73.31
2019-03-11T02:06:36.412Z,72.79
2019-03-11T02:11:38.012Z,71.55
2019-03-11T02:16:39.644Z,72.23
2019-03-11T02:21:41.303Z,72.86
2019-03-11T02:26:42.986Z,70.24
2019-03-11T02:31:44.652Z,72.22
2019-03-11T02:36:46.321Z,74.40
2019-03-11T02:41:47.978Z,74.90
2019-03-11T02:46:49.614Z,73.70
2019-03-11T02:51:51.239Z,71.68
2019-03-11T02:56:52.876Z,75.04
2019-03-11T03:01:54.533Z,73.87
2019-03-11T03:06:56.124Z,69.90
2019-03-11T03:11:57.708Z,71.65
2019-03-11T03:16:59.362Z,71.06
2019-03-11T03:22:00.964Z,72.23
2019-03-11T03:27:02.694Z,72.13
2019-03-11T03:32:04.326Z,69.78
2019-03-11T03:37:05.892Z,71.91
2019-03-11T03:42:08.171Z,70.66
2019-03-11T03:47:09.865Z,68.42
2019-03-11T03:52:11.597Z,70.76
2019-03-11T03:57:13.203Z,73.69
2019-03-11T04:02:14.820Z,74.00
2019-03-11T04:07:16.556Z,71.14
2019-03-11T04:12:18.233Z,70.54
2019-03-11T04:17:19.834Z,70.71
2019-03-11T04:22:21.426Z,72.35
2019-03-11T04:27:23.054Z,74.10
2019-03-11T04:32:24.722Z,76.76
2019-03-11T04:37:26.345Z,77.38
2019-03-11T04:42:28.095Z,77.61
2019-03-11T04:47:32.097Z,76.89
2019-03-11T04:52:33.694Z,75.84
2019-03-11T04:57:45.924Z,76.86
2019-03-11T05:02:47.530Z,76.54
2019-03-11T05:07:49.247Z,77.02
2019-03-11T05:12:50.854Z,76.70
2019-03-11T05:17:52.471Z,75.86
2019-03-11T05:22:55.067Z,76.64
2019-03-11T05:27:56.856Z,76.11
2019-03-11T05:32:58.631Z,73.64
2019-03-11T05:38:00.249Z,73.83
2019-03-11T05:43:01.998Z,74.43
2019-03-11T05:48:03.627Z,75.59
2019-03-11T05:53:05.223Z,76.94
2019-03-11T05:58:06.818Z,76.71
2019-03-11T06:03:08.432Z,75.39
2019-03-11T06:08:19.742Z,75.82
2019-03-11T06:13:21.468Z,74.17
2019-03-11T06:18:23.014Z,75.64
2019-03-11T06:23:24.672Z,78.23
2019-03-11T06:28:26.291Z,79.31
2019-03-11T06:33:27.915Z,79.51
2019-03-11T06:38:29.505Z,78.90
2019-03-11T06:43:31.190Z,76.89
2019-03-11T06:48:32.823Z,76.80
2019-03-11T06:53:34.393Z,75.63
2019-03-11T06:58:36.002Z,74.24
2019-03-11T07:03:38.744Z,73.65
2019-03-11T07:08:40.348Z,73.88
2019-03-11T07:13:42.059Z,73.74
2019-03-11T07:18:43.695Z,74.12
2019-03-11T07:23:45.276Z,73.97
2019-03-11T07:28:46.908Z,74.83
2019-03-11T07:33:48.564Z,72.28
2019-03-11T07:38:50.289Z,72.54
2019-03-11T07:43:51.991Z,71.40
2019-03-11T07:48:53.586Z,71.59
2019-03-11T07:53:55.303Z,72.53
2019-03-11T07:58:57.160Z,72.06
2019-03-11T08:04:02.238Z,69.57
2019-03-11T08:09:05.566Z,71.16
2019-03-11T08:14:08.930Z,69.79
2019-03-11T08:19:12.255Z,68.42
2019-03-11T08:24:16.857Z,69.11
2019-03-11T08:29:18.820Z,67.70
2019-03-11T08:34:20.586Z,67.85
2019-03-11T08:39:22.714Z,68.00
2019-03-11T08:44:24.417Z,67.12
2019-03-11T08:49:26.130Z,67.47
2019-03-11T08:54:27.874Z,66.43
2019-03-11T08:59:29.767Z,66.82
2019-03-11T09:04:31.635Z,66.78
2019-03-11T09:09:33.296Z,67.17
2019-03-11T09:14:34.945Z,67.13
2019-03-11T09:19:36.774Z,65.25
2019-03-11T09:24:38.437Z,66.48
2019-03-11T09:29:40.108Z,64.47
2019-03-11T09:34:41.800Z,64.46
2019-03-11T09:39:43.407Z,63.46
2019-03-11T09:44:45.020Z,64.44
2019-03-11T09:49:46.683Z,64.02
2019-03-11T09:54:48.398Z,65.43
2019-03-11T09:59:50.009Z,65.48
2019-03-11T10:04:51.588Z,61.53
2019-03-11T10:09:53.276Z,60.95
2019-03-11T10:14:54.993Z,60.99
2019-03-11T10:19:56.788Z,63.31
2019-03-11T10:24:58.868Z,60.36
2019-03-11T10:30:00.445Z,60.12
2019-03-11T10:35:02.065Z,61.87
2019-03-11T10:40:04.595Z,60.12
2019-03-11T10:45:06.448Z,62.34
2019-03-11T10:50:08.789Z,61.73
2019-03-11T10:55:11.001Z,60.36
2019-03-11T11:00:15.252Z,63.51
2019-03-11T11:05:16.812Z,65.70
2019-03-11T11:10:18.412Z,64.48
2019-03-11T11:15:20.400Z,67.51
2019-03-11T11:20:22.464Z,69.90
2019-03-11T11:25:24.077Z,69.60
2019-03-11T11:30:25.636Z,69.84
2019-03-11T11:35:27.242Z,70.53
2019-03-11T11:40:28.828Z,72.14
2019-03-11T11:45:30.468Z,71.32
2019-03-11T11:50:32.140Z,69.34
2019-03-11T11:55:33.748Z,66.51
2019-03-11T12:00:35.646Z,63.93
2019-03-11T12:05:37.282Z,60.61
2019-03-11T12:10:38.878Z,63.16
2019-03-11T12:15:40.528Z,57.56
2019-03-11T12:20:42.154Z,58.21
2019-03-11T12:25:43.861Z,59.76
2019-03-11T12:30:45.421Z,61.34
2019-03-11T12:35:47.218Z,59.59
2019-03-11T12:40:48.830Z,57.38
2019-03-11T12:45:50.480Z,56.51
2019-03-11T12:50:52.079Z,56.41
2019-03-11T12:55:53.687Z,58.35
2019-03-11T13:00:55.364Z,57.23
2019-03-11T13:05:57.082Z,57.93
2019-03-11T13:10:58.684Z,59.00
2019-03-11T13:16:00.332Z,58.75
2019-03-11T13:21:17.530Z,57.64
2019-03-11T13:26:19.301Z,57.56
2019-03-11T13:31:20.872Z,58.53
2019-03-11T13:36:22.469Z,56.06
2019-03-11T13:41:24.045Z,55.75
2019-03-11T13:46:25.647Z,57.32
2019-03-11T13:51:27.326Z,58.06
2019-03-11T13:56:29.011Z,58.98
2019-03-11T14:01:30.619Z,57.84
2019-03-11T14:06:32.477Z,59.83
2019-03-11T14:11:34.051Z,56.41
2019-03-11T14:16:35.675Z,59.76
2019-03-11T14:21:37.294Z,56.96
2019-03-11T14:26:38.978Z,59.40
2019-03-11T14:31:40.560Z,59.36
2019-03-11T14:36:42.145Z,62.30
2019-03-11T14:41:43.770Z,57.35
2019-03-11T14:46:45.459Z,58.97
2019-03-11T14:51:47.138Z,56.29
2019-03-11T14:56:48.758Z,58.70
2019-03-11T15:01:50.378Z,58.11
2019-03-11T15:06:52.836Z,59.00
2019-03-11T15:11:54.638Z,59.43
2019-03-11T15:16:56.253Z,56.51
2019-03-11T15:21:58.424Z,61.78
2019-03-11T15:27:00.063Z,60.14
2019-03-11T15:32:01.665Z,56.69
2019-03-11T15:37:03.313Z,57.41
2019-03-11T15:42:06.135Z,60.53
2019-03-11T15:47:07.666Z,58.53
2019-03-11T15:52:09.277Z,60.61
2019-03-11T15:57:10.876Z,58.39
2019-03-11T16:02:12.717Z,57.81
2019-03-11T16:07:14.251Z,59.16
2019-03-11T16:12:15.865Z,58.20
2019-03-11T16:17:17.435Z,58.68
2019-03-11T16:22:23.241Z,58.93
2019-03-11T16:27:22.768Z,59.29
2019-03-11T16:32:24.318Z,60.48
2019-03-11T16:37:26.014Z,59.74
2019-03-11T16:42:27.855Z,61.78
2019-03-11T16:47:29.561Z,64.22
2019-03-11T16:52:31.223Z,61.80
2019-03-11T16:57:35.202Z,61.34
2019-03-11T17:02:36.951Z,63.79
2019-03-11T17:07:38.577Z,61.17
2019-03-11T17:12:40.204Z,63.67
2019-03-11T17:17:42.329Z,63.86
2019-03-11T17:22:44.063Z,63.14
2019-03-11T17:27:45.678Z,63.17
2019-03-11T17:32:47.327Z,63.65
2019-03-11T17:37:53.032Z,64.74
2019-03-11T17:42:57.878Z,64.12
2019-03-11T17:47:59.537Z,65.40
2019-03-11T17:53:01.134Z,65.82
2019-03-11T17:58:02.763Z,65.25
2019-03-11T18:03:04.370Z,65.81
2019-03-11T18:08:06.124Z,65.58
2019-03-11T18:13:07.726Z,66.89
2019-03-11T18:18:09.382Z,66.39
2019-03-11T18:23:10.960Z,65.87
2019-03-11T18:28:12.707Z,65.83
2019-03-11T18:33:14.324Z,65.00
2019-03-11T18:38:15.969Z,66.12
2019-03-11T18:43:20.975Z,65.54
2019-03-11T18:48:22.158Z,65.79
2019-03-11T18:53:23.890Z,65.93
2019-03-11T18:58:25.753Z,66.18
2019-03-11T19:03:27.554Z,66.49
2019-03-11T19:08:31.386Z,67.06
2019-03-11T19:13:33.002Z,67.38
2019-03-11T19:18:37.488Z,67.37
2019-03-11T19:23:40.266Z,67.40
2019-03-11T19:28:41.861Z,68.30
2019-03-11T19:33:43.824Z,67.99
2019-03-11T19:38:47.601Z,68.17
2019-03-11T19:43:51.266Z,68.78
2019-03-11T19:48:53.310Z,69.17
2019-03-11T19:53:57.593Z,69.32
2019-03-11T19:58:59.821Z,68.87
2019-03-11T20:04:02.740Z,68.66
2019-03-11T20:09:07.187Z,69.13
2019-03-11T20:14:09.285Z,69.04
2019-03-11T20:19:11.092Z,69.55
2019-03-11T20:24:12.857Z,69.35
2019-03-11T20:29:23.296Z,69.43
2019-03-11T20:34:24.405Z,69.27
2019-03-11T20:39:26.468Z,69.68
2019-03-11T20:44:28.226Z,69.72
2019-03-11T20:49:29.935Z,70.01
2019-03-11T20:54:33.016Z,70.59
2019-03-11T20:59:35.268Z,70.49
2019-03-11T21:04:37.420Z,70.91
2019-03-11T21:09:39.229Z,70.84
2019-03-11T21:14:40.866Z,70.94
2019-03-11T21:19:45.067Z,71.24
2019-03-11T21:24:55.528Z,71.25
2019-03-11T21:29:51.863Z,71.41
2019-03-11T21:34:55.816Z,71.49
2019-03-11T21:39:58.062Z,71.58
2019-03-11T21:44:59.749Z,71.76
2019-03-11T21:50:01.531Z,71.87
2019-03-11T21:55:03.377Z,72.00
2019-03-11T22:00:05.728Z,72.23
2019-03-11T22:05:07.441Z,72.36
2019-03-11T22:10:09.699Z,72.53
2019-03-11T22:15:11.742Z,72.78
2019-03-11T22:20:13.596Z,72.88
2019-03-11T22:25:15.332Z,72.99
2019-03-11T22:30:17.976Z,73.40
2019-03-11T22:35:20.107Z,73.46
2019-03-11T22:40:21.712Z,73.64
2019-03-11T22:45:23.429Z,73.58
2019-03-11T22:50:24.995Z,73.64
2019-03-11T22:55:26.598Z,73.68
2019-03-11T23:00:34.139Z,73.78
2019-03-11T23:05:35.829Z,73.99
2019-03-11T23:10:37.573Z,74.11
2019-03-11T23:15:39.214Z,74.17
2019-03-11T23:20:40.856Z,74.11
2019-03-11T23:25:42.445Z,74.26
2019-03-11T23:30:44.168Z,74.39
2019-03-11T23:35:46.097Z,74.63
2019-03-11T23:40:47.656Z,74.95
2019-03-11T23:45:49.251Z,74.85
2019-03-11T23:50:50.825Z,74.93
2019-03-11T23:55:52.581Z,74.69
